sensor_id;sensor_type;location;lat;lon;timestamp;pressure;altitude;pressure_sealevel;temperature;humidity
29505;BME280;16452;54.174;12.092;2022-08-21T00:00:43;101409.66;;;25.42;75.19
29505;BME280;16452;54.174;12.092;2022-08-21T00:03:10;101396.06;;;25.61;74.43
29505;BME280;16452;54.174;12.092;2022-08-21T00:05:42;101392.75;;;25.75;73.98
29505;BME280;16452;54.174;12.092;2022-08-21T00:08:09;101396.97;;;25.77;73.96
29505;BME280;16452;54.174;12.092;2022-08-21T00:10:35;101382.34;;;25.56;74.54
29505;BME280;16452;54.174;12.092;2022-08-21T00:13:03;101391.78;;;25.68;74.36
29505;BME280;16452;54.174;12.092;2022-08-21T00:15:32;101390.59;;;25.70;73.71
29505;BME280;16452;54.174;12.092;2022-08-21T00:17:58;101395.16;;;25.52;73.88
29505;BME280;16452;54.174;12.092;2022-08-21T00:20:25;101398.25;;;25.31;74.76
29505;BME280;16452;54.174;12.092;2022-08-21T00:22:51;101394.63;;;25.07;73.44
29505;BME280;16452;54.174;12.092;2022-08-21T00:25:18;101391.41;;;25.29;72.99
29505;BME280;16452;54.174;12.092;2022-08-21T00:27:44;101390.06;;;25.25;72.42
29505;BME280;16452;54.174;12.092;2022-08-21T00:30:15;101386.16;;;25.53;71.00
29505;BME280;16452;54.174;12.092;2022-08-21T00:32:42;101391.31;;;25.47;71.38
29505;BME280;16452;54.174;12.092;2022-08-21T00:35:13;101378.53;;;25.58;70.58
29505;BME280;16452;54.174;12.092;2022-08-21T00:37:40;101386.00;;;25.55;70.20
29505;BME280;16452;54.174;12.092;2022-08-21T00:40:10;101384.69;;;25.51;69.56
29505;BME280;16452;54.174;12.092;2022-08-21T00:42:37;101383.88;;;25.24;70.58
29505;BME280;16452;54.174;12.092;2022-08-21T00:45:06;101385.78;;;25.40;69.90
29505;BME280;16452;54.174;12.092;2022-08-21T00:47:32;101387.34;;;25.51;69.70
29505;BME280;16452;54.174;12.092;2022-08-21T00:49:58;101391.09;;;25.32;70.61
29505;BME280;16452;54.174;12.092;2022-08-21T00:52:28;101391.31;;;25.39;71.29
29505;BME280;16452;54.174;12.092;2022-08-21T00:54:57;101384.78;;;25.33;71.39
29505;BME280;16452;54.174;12.092;2022-08-21T00:57:32;101382.28;;;25.40;71.17
29505;BME280;16452;54.174;12.092;2022-08-21T01:00:03;101386.16;;;25.53;71.40
29505;BME280;16452;54.174;12.092;2022-08-21T01:02:29;101380.25;;;25.33;72.06
29505;BME280;16452;54.174;12.092;2022-08-21T01:04:55;101386.94;;;25.38;71.98
29505;BME280;16452;54.174;12.092;2022-08-21T01:07:21;101384.22;;;25.21;72.26
29505;BME280;16452;54.174;12.092;2022-08-21T01:09:47;101390.22;;;25.23;72.43
29505;BME280;16452;54.174;12.092;2022-08-21T01:12:14;101384.13;;;25.39;71.86
29505;BME280;16452;54.174;12.092;2022-08-21T01:14:41;101384.31;;;25.12;71.63
29505;BME280;16452;54.174;12.092;2022-08-21T01:17:11;101389.03;;;25.18;70.33
29505;BME280;16452;54.174;12.092;2022-08-21T01:19:38;101389.34;;;25.15;69.85
29505;BME280;16452;54.174;12.092;2022-08-21T01:22:06;101385.66;;;25.08;70.02
29505;BME280;16452;54.174;12.092;2022-08-21T01:24:32;101384.59;;;25.01;70.74
29505;BME280;16452;54.174;12.092;2022-08-21T01:26:59;101384.53;;;25.18;71.22
29505;BME280;16452;54.174;12.092;2022-08-21T01:29:57;101376.22;;;25.29;70.59
29505;BME280;16452;54.174;12.092;2022-08-21T01:32:24;101387.97;;;24.85;72.28
29505;BME280;16452;54.174;12.092;2022-08-21T01:34:52;101386.19;;;25.19;71.79
29505;BME280;16452;54.174;12.092;2022-08-21T01:37:20;101383.75;;;25.34;72.02
29505;BME280;16452;54.174;12.092;2022-08-21T01:39:46;101386.41;;;25.26;73.65
29505;BME280;16452;54.174;12.092;2022-08-21T01:42:13;101389.06;;;25.26;73.85
29505;BME280;16452;54.174;12.092;2022-08-21T01:44:40;101390.00;;;25.51;73.52
29505;BME280;16452;54.174;12.092;2022-08-21T01:47:09;101387.13;;;25.10;74.96
29505;BME280;16452;54.174;12.092;2022-08-21T01:49:37;101389.03;;;25.18;74.79
29505;BME280;16452;54.174;12.092;2022-08-21T01:52:04;101390.78;;;25.01;74.60
29505;BME280;16452;54.174;12.092;2022-08-21T01:54:30;101390.13;;;25.41;73.50
29505;BME280;16452;54.174;12.092;2022-08-21T01:56:57;101392.59;;;25.34;73.44
29505;BME280;16452;54.174;12.092;2022-08-21T01:59:24;101391.28;;;25.05;72.85
29505;BME280;16452;54.174;12.092;2022-08-21T02:01:50;101382.25;;;24.98;72.44
29505;BME280;16452;54.174;12.092;2022-08-21T02:04:17;101400.31;;;24.86;73.76
29505;BME280;16452;54.174;12.092;2022-08-21T02:06:43;101392.56;;;24.92;73.90
29505;BME280;16452;54.174;12.092;2022-08-21T02:09:10;101396.94;;;25.35;73.27
29505;BME280;16452;54.174;12.092;2022-08-21T02:11:37;101389.28;;;25.32;73.73
29505;BME280;16452;54.174;12.092;2022-08-21T02:14:11;101392.94;;;25.40;73.81
29505;BME280;16452;54.174;12.092;2022-08-21T02:16:40;101397.72;;;25.28;74.63
29505;BME280;16452;54.174;12.092;2022-08-21T02:19:07;101401.94;;;25.30;74.58
29505;BME280;16452;54.174;12.092;2022-08-21T02:21:33;101394.19;;;25.19;75.16
29505;BME280;16452;54.174;12.092;2022-08-21T02:23:58;101395.13;;;25.10;75.79
29505;BME280;16452;54.174;12.092;2022-08-21T02:26:25;101406.78;;;25.01;76.46
29505;BME280;16452;54.174;12.092;2022-08-21T02:28:51;101399.41;;;24.77;77.34
29505;BME280;16452;54.174;12.092;2022-08-21T02:31:17;101393.84;;;25.14;75.49
29505;BME280;16452;54.174;12.092;2022-08-21T02:33:43;101393.31;;;25.11;75.53
29505;BME280;16452;54.174;12.092;2022-08-21T02:36:10;101389.81;;;24.84;76.45
29505;BME280;16452;54.174;12.092;2022-08-21T02:38:39;101401.84;;;25.14;75.78
29505;BME280;16452;54.174;12.092;2022-08-21T02:41:14;101402.16;;;24.85;76.51
29505;BME280;16452;54.174;12.092;2022-08-21T02:43:42;101399.53;;;24.68;76.04
29505;BME280;16452;54.174;12.092;2022-08-21T02:46:10;101396.44;;;24.54;76.08
29505;BME280;16452;54.174;12.092;2022-08-21T02:48:38;101397.22;;;24.29;77.22
29505;BME280;16452;54.174;12.092;2022-08-21T02:51:12;101391.03;;;24.11;77.11
29505;BME280;16452;54.174;12.092;2022-08-21T02:53:39;101388.91;;;24.14;77.36
29505;BME280;16452;54.174;12.092;2022-08-21T02:56:10;101388.72;;;23.81;78.93
29505;BME280;16452;54.174;12.092;2022-08-21T02:58:47;101386.22;;;23.97;78.20
29505;BME280;16452;54.174;12.092;2022-08-21T03:01:13;101386.72;;;23.65;79.80
29505;BME280;16452;54.174;12.092;2022-08-21T03:03:42;101388.16;;;24.04;78.71
29505;BME280;16452;54.174;12.092;2022-08-21T03:06:10;101385.34;;;24.24;77.48
29505;BME280;16452;54.174;12.092;2022-08-21T03:08:37;101384.94;;;24.36;76.61
29505;BME280;16452;54.174;12.092;2022-08-21T03:11:04;101377.50;;;24.40;76.69
29505;BME280;16452;54.174;12.092;2022-08-21T03:13:30;101392.56;;;24.49;77.12
29505;BME280;16452;54.174;12.092;2022-08-21T03:15:57;101382.25;;;24.28;78.06
29505;BME280;16452;54.174;12.092;2022-08-21T03:18:23;101380.94;;;24.32;78.04
29505;BME280;16452;54.174;12.092;2022-08-21T03:20:49;101376.66;;;24.39;77.83
29505;BME280;16452;54.174;12.092;2022-08-21T03:23:16;101388.63;;;24.87;76.66
29505;BME280;16452;54.174;12.092;2022-08-21T03:25:43;101392.41;;;24.50;77.60
29505;BME280;16452;54.174;12.092;2022-08-21T03:28:13;101388.75;;;24.77;77.27
29505;BME280;16452;54.174;12.092;2022-08-21T03:30:41;101388.50;;;24.63;77.13
29505;BME280;16452;54.174;12.092;2022-08-21T03:33:08;101388.69;;;24.26;78.78
29505;BME280;16452;54.174;12.092;2022-08-21T03:35:34;101393.75;;;24.01;78.94
29505;BME280;16452;54.174;12.092;2022-08-21T03:38:00;101400.84;;;23.93;79.47
29505;BME280;16452;54.174;12.092;2022-08-21T03:40:26;101397.59;;;24.17;79.45
29505;BME280;16452;54.174;12.092;2022-08-21T03:42:52;101399.69;;;23.95;80.30
29505;BME280;16452;54.174;12.092;2022-08-21T03:45:19;101399.47;;;24.06;79.88
29505;BME280;16452;54.174;12.092;2022-08-21T03:48:11;101407.47;;;24.24;79.14
29505;BME280;16452;54.174;12.092;2022-08-21T03:50:40;101400.88;;;24.28;79.18
29505;BME280;16452;54.174;12.092;2022-08-21T03:53:11;101402.09;;;24.34;78.14
29505;BME280;16452;54.174;12.092;2022-08-21T03:55:37;101408.84;;;23.65;80.62
29505;BME280;16452;54.174;12.092;2022-08-21T03:58:03;101411.41;;;23.85;81.06
29505;BME280;16452;54.174;12.092;2022-08-21T04:00:30;101417.44;;;24.04;80.14
29505;BME280;16452;54.174;12.092;2022-08-21T04:02:55;101419.44;;;24.20;80.00
29505;BME280;16452;54.174;12.092;2022-08-21T04:05:21;101415.47;;;24.24;79.18
29505;BME280;16452;54.174;12.092;2022-08-21T04:07:58;101421.59;;;24.07;79.42
29505;BME280;16452;54.174;12.092;2022-08-21T04:10:26;101419.25;;;24.04;79.68
29505;BME280;16452;54.174;12.092;2022-08-21T04:12:54;101420.81;;;24.24;79.13
29505;BME280;16452;54.174;12.092;2022-08-21T04:15:23;101415.41;;;23.89;80.03
29505;BME280;16452;54.174;12.092;2022-08-21T04:17:49;101426.63;;;23.92;80.74
29505;BME280;16452;54.174;12.092;2022-08-21T04:20:16;101421.13;;;24.21;79.94
29505;BME280;16452;54.174;12.092;2022-08-21T04:22:42;101415.53;;;24.14;80.45
29505;BME280;16452;54.174;12.092;2022-08-21T04:25:10;101419.59;;;24.19;80.10
29505;BME280;16452;54.174;12.092;2022-08-21T04:27:37;101416.84;;;24.10;79.88
29505;BME280;16452;54.174;12.092;2022-08-21T04:30:04;101425.00;;;24.27;79.97
29505;BME280;16452;54.174;12.092;2022-08-21T04:32:30;101419.47;;;23.93;80.92
29505;BME280;16452;54.174;12.092;2022-08-21T04:35:02;101419.78;;;24.07;81.11
29505;BME280;16452;54.174;12.092;2022-08-21T04:37:30;101423.19;;;24.17;80.70
29505;BME280;16452;54.174;12.092;2022-08-21T04:39:56;101424.44;;;24.23;80.16
29505;BME280;16452;54.174;12.092;2022-08-21T04:42:24;101422.56;;;24.51;78.93
29505;BME280;16452;54.174;12.092;2022-08-21T04:44:50;101423.41;;;24.51;78.04
29505;BME280;16452;54.174;12.092;2022-08-21T04:47:16;101421.72;;;24.50;77.32
29505;BME280;16452;54.174;12.092;2022-08-21T04:49:44;101421.75;;;24.59;76.32
29505;BME280;16452;54.174;12.092;2022-08-21T04:52:11;101424.50;;;24.67;75.84
29505;BME280;16452;54.174;12.092;2022-08-21T04:54:38;101423.53;;;24.50;76.23
29505;BME280;16452;54.174;12.092;2022-08-21T04:57:07;101431.72;;;24.92;74.53
29505;BME280;16452;54.174;12.092;2022-08-21T04:59:39;101428.19;;;25.17;72.99
29505;BME280;16452;54.174;12.092;2022-08-21T05:02:07;101442.50;;;25.08;72.49
29505;BME280;16452;54.174;12.092;2022-08-21T05:04:39;101422.28;;;25.31;71.83
29505;BME280;16452;54.174;12.092;2022-08-21T05:07:15;101432.13;;;24.87;74.10
29505;BME280;16452;54.174;12.092;2022-08-21T05:09:42;101429.47;;;24.62;74.48
29505;BME280;16452;54.174;12.092;2022-08-21T05:12:08;101429.22;;;24.90;73.75
29505;BME280;16452;54.174;12.092;2022-08-21T05:14:34;101424.47;;;25.10;73.13
29505;BME280;16452;54.174;12.092;2022-08-21T05:17:00;101438.38;;;25.22;72.52
29505;BME280;16452;54.174;12.092;2022-08-21T05:19:26;101428.75;;;25.29;72.17
29505;BME280;16452;54.174;12.092;2022-08-21T05:21:53;101428.13;;;25.35;71.57
29505;BME280;16452;54.174;12.092;2022-08-21T05:24:19;101427.22;;;25.18;71.65
29505;BME280;16452;54.174;12.092;2022-08-21T05:26:45;101428.31;;;25.42;71.62
29505;BME280;16452;54.174;12.092;2022-08-21T05:29:11;101433.44;;;25.61;71.48
29505;BME280;16452;54.174;12.092;2022-08-21T05:31:38;101434.63;;;25.66;71.39
29505;BME280;16452;54.174;12.092;2022-08-21T05:34:05;101430.25;;;25.57;72.23
29505;BME280;16452;54.174;12.092;2022-08-21T05:36:31;101431.63;;;25.61;71.88
29505;BME280;16452;54.174;12.092;2022-08-21T05:38:57;101440.91;;;25.57;71.48
29505;BME280;16452;54.174;12.092;2022-08-21T05:41:23;101436.78;;;25.63;71.50
29505;BME280;16452;54.174;12.092;2022-08-21T05:43:49;101432.28;;;25.63;70.98
29505;BME280;16452;54.174;12.092;2022-08-21T05:46:15;101439.47;;;25.71;71.64
29505;BME280;16452;54.174;12.092;2022-08-21T05:48:41;101436.84;;;25.79;70.78
29505;BME280;16452;54.174;12.092;2022-08-21T05:51:15;101439.88;;;25.84;70.76
29505;BME280;16452;54.174;12.092;2022-08-21T05:53:43;101441.50;;;25.43;71.99
29505;BME280;16452;54.174;12.092;2022-08-21T05:56:10;101441.56;;;25.93;70.32
29505;BME280;16452;54.174;12.092;2022-08-21T05:58:37;101432.06;;;26.07;69.61
29505;BME280;16452;54.174;12.092;2022-08-21T06:01:03;101447.19;;;25.82;70.92
29505;BME280;16452;54.174;12.092;2022-08-21T06:03:33;101433.28;;;26.21;68.78
29505;BME280;16452;54.174;12.092;2022-08-21T06:06:00;101436.47;;;26.56;68.06
29505;BME280;16452;54.174;12.092;2022-08-21T06:08:27;101434.97;;;26.78;66.51
29505;BME280;16452;54.174;12.092;2022-08-21T06:10:55;101436.66;;;26.47;66.63
29505;BME280;16452;54.174;12.092;2022-08-21T06:13:22;101441.66;;;26.82;65.97
29505;BME280;16452;54.174;12.092;2022-08-21T06:15:49;101442.13;;;26.86;66.31
29505;BME280;16452;54.174;12.092;2022-08-21T06:18:16;101444.69;;;26.95;65.80
29505;BME280;16452;54.174;12.092;2022-08-21T06:20:42;101445.00;;;26.84;67.51
29505;BME280;16452;54.174;12.092;2022-08-21T06:23:08;101442.44;;;27.15;66.17
29505;BME280;16452;54.174;12.092;2022-08-21T06:25:35;101452.41;;;27.46;66.46
29505;BME280;16452;54.174;12.092;2022-08-21T06:28:04;101448.88;;;27.45;65.49
29505;BME280;16452;54.174;12.092;2022-08-21T06:30:31;101440.38;;;27.42;66.35
29505;BME280;16452;54.174;12.092;2022-08-21T06:32:57;101440.84;;;26.90;66.81
29505;BME280;16452;54.174;12.092;2022-08-21T06:35:23;101434.31;;;27.01;66.38
29505;BME280;16452;54.174;12.092;2022-08-21T06:37:50;101425.44;;;26.84;66.06
29505;BME280;16452;54.174;12.092;2022-08-21T06:40:16;101435.97;;;27.02;65.24
29505;BME280;16452;54.174;12.092;2022-08-21T06:42:42;101432.81;;;26.90;65.70
29505;BME280;16452;54.174;12.092;2022-08-21T06:45:09;101438.47;;;26.87;64.63
29505;BME280;16452;54.174;12.092;2022-08-21T06:47:35;101435.16;;;26.85;64.87
29505;BME280;16452;54.174;12.092;2022-08-21T06:50:01;101432.16;;;26.96;65.27
29505;BME280;16452;54.174;12.092;2022-08-21T06:52:27;101441.25;;;27.26;63.27
29505;BME280;16452;54.174;12.092;2022-08-21T06:54:52;101441.91;;;27.36;62.51
29505;BME280;16452;54.174;12.092;2022-08-21T06:57:18;101446.22;;;27.53;61.98
29505;BME280;16452;54.174;12.092;2022-08-21T06:59:44;101448.09;;;27.36;62.38
29505;BME280;16452;54.174;12.092;2022-08-21T07:02:10;101447.38;;;27.51;61.08
29505;BME280;16452;54.174;12.092;2022-08-21T07:04:36;101444.78;;;27.73;59.60
29505;BME280;16452;54.174;12.092;2022-08-21T07:07:02;101441.50;;;27.55;60.77
29505;BME280;16452;54.174;12.092;2022-08-21T07:09:28;101437.44;;;27.12;61.13
29505;BME280;16452;54.174;12.092;2022-08-21T07:11:56;101436.97;;;27.64;59.96
29505;BME280;16452;54.174;12.092;2022-08-21T07:14:22;101427.13;;;27.87;58.91
29505;BME280;16452;54.174;12.092;2022-08-21T07:16:49;101427.91;;;28.27;57.65
29505;BME280;16452;54.174;12.092;2022-08-21T07:19:16;101431.47;;;27.57;56.80
29505;BME280;16452;54.174;12.092;2022-08-21T07:21:42;101436.03;;;27.32;58.75
29505;BME280;16452;54.174;12.092;2022-08-21T07:24:07;101437.34;;;27.45;58.38
29505;BME280;16452;54.174;12.092;2022-08-21T07:26:38;101432.22;;;27.74;57.88
29505;BME280;16452;54.174;12.092;2022-08-21T07:29:07;101435.72;;;27.27;59.68
29505;BME280;16452;54.174;12.092;2022-08-21T07:31:33;101428.53;;;27.75;58.28
29505;BME280;16452;54.174;12.092;2022-08-21T07:33:59;101427.88;;;27.73;58.09
29505;BME280;16452;54.174;12.092;2022-08-21T07:36:25;101425.78;;;27.44;57.80
29505;BME280;16452;54.174;12.092;2022-08-21T07:38:50;101418.81;;;27.35;56.46
29505;BME280;16452;54.174;12.092;2022-08-21T07:41:23;101416.19;;;27.97;55.21
29505;BME280;16452;54.174;12.092;2022-08-21T07:43:50;101417.25;;;28.18;53.62
29505;BME280;16452;54.174;12.092;2022-08-21T07:46:16;101416.97;;;27.35;53.61
29505;BME280;16452;54.174;12.092;2022-08-21T07:48:44;101417.84;;;27.98;54.59
29505;BME280;16452;54.174;12.092;2022-08-21T07:51:13;101422.06;;;27.92;54.52
29505;BME280;16452;54.174;12.092;2022-08-21T07:53:39;101418.19;;;28.26;53.25
29505;BME280;16452;54.174;12.092;2022-08-21T07:56:06;101422.22;;;28.44;52.67
29505;BME280;16452;54.174;12.092;2022-08-21T07:58:33;101414.00;;;28.46;53.15
29505;BME280;16452;54.174;12.092;2022-08-21T08:00:59;101417.34;;;28.48;52.55
29505;BME280;16452;54.174;12.092;2022-08-21T08:03:25;101406.44;;;28.49;52.11
29505;BME280;16452;54.174;12.092;2022-08-21T08:05:51;101418.72;;;28.21;54.41
29505;BME280;16452;54.174;12.092;2022-08-21T08:08:17;101418.56;;;28.23;54.50
29505;BME280;16452;54.174;12.092;2022-08-21T08:10:44;101417.03;;;28.43;53.26
29505;BME280;16452;54.174;12.092;2022-08-21T08:13:10;101426.09;;;28.19;55.37
29505;BME280;16452;54.174;12.092;2022-08-21T08:15:39;101421.69;;;28.49;53.04
29505;BME280;16452;54.174;12.092;2022-08-21T08:18:04;101425.47;;;28.09;52.74
29505;BME280;16452;54.174;12.092;2022-08-21T08:20:30;101418.00;;;28.27;54.13
29505;BME280;16452;54.174;12.092;2022-08-21T08:22:56;101415.97;;;28.52;54.39
29505;BME280;16452;54.174;12.092;2022-08-21T08:25:23;101420.78;;;28.56;53.45
29505;BME280;16452;54.174;12.092;2022-08-21T08:27:50;101419.41;;;28.98;52.73
29505;BME280;16452;54.174;12.092;2022-08-21T08:30:18;101418.03;;;29.17;51.27
29505;BME280;16452;54.174;12.092;2022-08-21T08:32:45;101418.03;;;29.17;52.40
29505;BME280;16452;54.174;12.092;2022-08-21T08:35:12;101423.56;;;29.00;52.53
29505;BME280;16452;54.174;12.092;2022-08-21T08:37:38;101422.09;;;28.60;51.66
29505;BME280;16452;54.174;12.092;2022-08-21T08:40:14;101415.72;;;28.62;51.92
29505;BME280;16452;54.174;12.092;2022-08-21T08:42:40;101429.38;;;28.52;50.25
29505;BME280;16452;54.174;12.092;2022-08-21T08:45:14;101423.56;;;29.00;49.66
29505;BME280;16452;54.174;12.092;2022-08-21T08:47:49;101428.28;;;27.93;49.91
29505;BME280;16452;54.174;12.092;2022-08-21T08:50:30;101421.13;;;28.08;50.37
29505;BME280;16452;54.174;12.092;2022-08-21T08:53:06;101424.44;;;27.56;53.69
29505;BME280;16452;54.174;12.092;2022-08-21T08:55:36;101419.78;;;27.81;53.78
29505;BME280;16452;54.174;12.092;2022-08-21T08:58:03;101416.28;;;27.81;52.95
29505;BME280;16452;54.174;12.092;2022-08-21T09:00:30;101425.09;;;27.66;56.10
29505;BME280;16452;54.174;12.092;2022-08-21T09:02:59;101411.81;;;27.96;55.68
29505;BME280;16452;54.174;12.092;2022-08-21T09:20:07;101407.97;;;27.98;53.14
29505;BME280;16452;54.174;12.092;2022-08-21T09:26:12;101405.50;;;28.19;50.13
29505;BME280;16452;54.174;12.092;2022-08-21T09:28:39;101415.63;;;27.78;51.21
29505;BME280;16452;54.174;12.092;2022-08-21T09:31:16;101411.06;;;27.87;50.97
29505;BME280;16452;54.174;12.092;2022-08-21T09:33:45;101412.91;;;27.87;49.30
29505;BME280;16452;54.174;12.092;2022-08-21T09:36:11;101406.88;;;26.98;46.44
29505;BME280;16452;54.174;12.092;2022-08-21T09:38:37;101411.03;;;27.64;47.42
29505;BME280;16452;54.174;12.092;2022-08-21T09:41:08;101405.28;;;28.29;44.71
29505;BME280;16452;54.174;12.092;2022-08-21T09:43:36;101409.94;;;27.43;46.17
29505;BME280;16452;54.174;12.092;2022-08-21T09:48:48;101403.53;;;27.44;45.08
29505;BME280;16452;54.174;12.092;2022-08-21T09:51:25;101407.63;;;27.70;47.67
29505;BME280;16452;54.174;12.092;2022-08-21T09:56:57;101405.72;;;28.10;47.61
29505;BME280;16452;54.174;12.092;2022-08-21T09:59:45;101404.72;;;28.11;46.85
29505;BME280;16452;54.174;12.092;2022-08-21T10:02:32;101412.31;;;28.30;46.37
29505;BME280;16452;54.174;12.092;2022-08-21T10:05:08;101410.06;;;27.88;45.80
29505;BME280;16452;54.174;12.092;2022-08-21T10:07:40;101416.72;;;27.61;46.76
29505;BME280;16452;54.174;12.092;2022-08-21T10:10:19;101406.28;;;28.28;46.41
29505;BME280;16452;54.174;12.092;2022-08-21T10:25:27;101412.50;;;27.98;46.65
29505;BME280;16452;54.174;12.092;2022-08-21T10:28:13;101409.69;;;27.91;48.92
29505;BME280;16452;54.174;12.092;2022-08-21T10:31:09;101414.56;;;27.88;46.90
29505;BME280;16452;54.174;12.092;2022-08-21T10:34:21;101411.09;;;27.40;47.97
29505;BME280;16452;54.174;12.092;2022-08-21T10:40:21;101401.38;;;28.32;48.06
29505;BME280;16452;54.174;12.092;2022-08-21T10:46:14;101408.81;;;27.68;48.81
29505;BME280;16452;54.174;12.092;2022-08-21T10:55:19;101402.38;;;27.38;50.19
29505;BME280;16452;54.174;12.092;2022-08-21T11:00:51;101400.84;;;27.05;51.37
29505;BME280;16452;54.174;12.092;2022-08-21T11:03:42;101397.69;;;26.93;52.37
29505;BME280;16452;54.174;12.092;2022-08-21T11:06:25;101409.41;;;26.92;52.77
29505;BME280;16452;54.174;12.092;2022-08-21T11:09:10;101400.50;;;27.08;53.24
29505;BME280;16452;54.174;12.092;2022-08-21T11:11:45;101400.88;;;26.96;53.22
29505;BME280;16452;54.174;12.092;2022-08-21T11:14:24;101399.06;;;26.48;55.23
29505;BME280;16452;54.174;12.092;2022-08-21T11:17:12;101401.19;;;26.85;53.62
29505;BME280;16452;54.174;12.092;2022-08-21T11:20:05;101391.00;;;26.97;53.69
29505;BME280;16452;54.174;12.092;2022-08-21T11:22:52;101400.88;;;26.88;54.14
29505;BME280;16452;54.174;12.092;2022-08-21T11:25:27;101403.41;;;26.41;55.49
29505;BME280;16452;54.174;12.092;2022-08-21T11:28:26;101397.88;;;26.59;54.62
29505;BME280;16452;54.174;12.092;2022-08-21T11:31:41;101402.47;;;27.22;54.00
29505;BME280;16452;54.174;12.092;2022-08-21T11:34:34;101394.19;;;27.78;53.17
29505;BME280;16452;54.174;12.092;2022-08-21T11:37:25;101395.84;;;27.49;53.33
29505;BME280;16452;54.174;12.092;2022-08-21T11:40:31;101391.81;;;27.45;54.13
29505;BME280;16452;54.174;12.092;2022-08-21T11:45:53;101388.72;;;27.72;53.49
29505;BME280;16452;54.174;12.092;2022-08-21T11:51:33;101388.69;;;27.33;53.76
29505;BME280;16452;54.174;12.092;2022-08-21T11:54:16;101385.69;;;27.75;53.70
29505;BME280;16452;54.174;12.092;2022-08-21T11:57:03;101387.63;;;27.50;53.82
29505;BME280;16452;54.174;12.092;2022-08-21T12:02:38;101382.28;;;27.81;53.15
29505;BME280;16452;54.174;12.092;2022-08-21T12:05:11;101379.91;;;28.09;53.12
29505;BME280;16452;54.174;12.092;2022-08-21T12:07:46;101385.78;;;27.04;53.54
29505;BME280;16452;54.174;12.092;2022-08-21T12:10:17;101374.56;;;28.09;52.40
29505;BME280;16452;54.174;12.092;2022-08-21T12:12:46;101384.44;;;28.16;53.34
29505;BME280;16452;54.174;12.092;2022-08-21T12:15:26;101379.41;;;28.13;51.71
29505;BME280;16452;54.174;12.092;2022-08-21T12:18:02;101379.53;;;28.20;52.71
29505;BME280;16452;54.174;12.092;2022-08-21T12:23:18;101379.53;;;28.20;52.76
29505;BME280;16452;54.174;12.092;2022-08-21T12:26:25;101377.09;;;28.33;52.19
29505;BME280;16452;54.174;12.092;2022-08-21T12:29:15;101380.75;;;27.87;52.74
29505;BME280;16452;54.174;12.092;2022-08-21T12:34:48;101377.25;;;28.09;51.57
29505;BME280;16452;54.174;12.092;2022-08-21T12:37:45;101380.59;;;28.11;52.11
29505;BME280;16452;54.174;12.092;2022-08-21T12:40:47;101375.59;;;28.31;52.49
29505;BME280;16452;54.174;12.092;2022-08-21T12:43:18;101377.63;;;28.06;53.07
29505;BME280;16452;54.174;12.092;2022-08-21T12:45:48;101369.63;;;28.43;51.97
29505;BME280;16452;54.174;12.092;2022-08-21T12:48:41;101374.50;;;27.71;53.18
29505;BME280;16452;54.174;12.092;2022-08-21T12:51:12;101369.75;;;28.04;53.57
29505;BME280;16452;54.174;12.092;2022-08-21T12:53:53;101373.41;;;27.81;53.47
29505;BME280;16452;54.174;12.092;2022-08-21T12:56:24;101365.13;;;27.36;54.89
29505;BME280;16452;54.174;12.092;2022-08-21T12:58:56;101372.84;;;27.23;54.50
29505;BME280;16452;54.174;12.092;2022-08-21T13:04:10;101361.59;;;27.36;55.40
29505;BME280;16452;54.174;12.092;2022-08-21T13:06:58;101358.88;;;27.05;56.18
29505;BME280;16452;54.174;12.092;2022-08-21T13:09:28;101353.69;;;27.51;53.77
29505;BME280;16452;54.174;12.092;2022-08-21T13:11:55;101355.50;;;27.19;53.06
29505;BME280;16452;54.174;12.092;2022-08-21T13:14:38;101342.00;;;27.97;52.37
29505;BME280;16452;54.174;12.092;2022-08-21T13:17:05;101340.72;;;28.08;52.00
29505;BME280;16452;54.174;12.092;2022-08-21T13:19:32;101341.31;;;27.72;54.22
29505;BME280;16452;54.174;12.092;2022-08-21T13:21:59;101345.06;;;27.63;54.29
29505;BME280;16452;54.174;12.092;2022-08-21T13:24:37;101335.81;;;28.19;53.42
29505;BME280;16452;54.174;12.092;2022-08-21T13:27:14;101337.97;;;28.24;52.61
29505;BME280;16452;54.174;12.092;2022-08-21T13:29:40;101331.69;;;27.63;54.16
29505;BME280;16452;54.174;12.092;2022-08-21T13:32:06;101336.09;;;27.48;54.72
29505;BME280;16452;54.174;12.092;2022-08-21T13:34:37;101333.28;;;27.72;54.14
29505;BME280;16452;54.174;12.092;2022-08-21T13:37:07;101339.38;;;27.89;53.42
29505;BME280;16452;54.174;12.092;2022-08-21T13:39:34;101333.13;;;28.57;51.20
29505;BME280;16452;54.174;12.092;2022-08-21T13:42:03;101328.94;;;28.54;52.25
29505;BME280;16452;54.174;12.092;2022-08-21T13:44:42;101337.59;;;28.27;52.31
29505;BME280;16452;54.174;12.092;2022-08-21T13:47:12;101331.47;;;28.71;51.14
29505;BME280;16452;54.174;12.092;2022-08-21T13:49:51;101335.25;;;28.62;52.40
29505;BME280;16452;54.174;12.092;2022-08-21T13:52:25;101333.91;;;28.43;51.82
29505;BME280;16452;54.174;12.092;2022-08-21T13:54:58;101331.66;;;28.17;53.21
29505;BME280;16452;54.174;12.092;2022-08-21T13:57:32;101330.00;;;28.31;53.54
29505;BME280;16452;54.174;12.092;2022-08-21T14:00:26;101331.78;;;28.76;53.06
29505;BME280;16452;54.174;12.092;2022-08-21T14:02:53;101322.34;;;28.94;51.66
29505;BME280;16452;54.174;12.092;2022-08-21T14:05:32;101315.19;;;28.57;52.47
29505;BME280;16452;54.174;12.092;2022-08-21T14:10:51;101318.94;;;28.11;53.10